CST,Max TemperatureF,Mean TemperatureF,Min TemperatureF,Max Dew PointF,MeanDew PointF,Min DewpointF,Max Humidity, Mean Humidity, Min Humidity, Max Sea Level PressureIn, Mean Sea Level PressureIn, Min Sea Level PressureIn, Max VisibilityMiles, Mean VisibilityMiles, Min VisibilityMiles, Max Wind SpeedMPH, Mean Wind SpeedMPH, Max Gust SpeedMPH,PrecipitationIn, CloudCover, Events, WindDirDegrees
2013-11-1,75,58,41,27,22,19,47,27,12,30.12,29.95,29.83,10,10,10,23,10,30,0.00,0,,336
2013-11-2,72,54,37,30,27,25,62,37,18,30.30,30.18,30.07,10,10,10,18,7,25,0.00,0,,106
2013-11-3,68,57,48,46,36,28,75,50,36,30.05,29.89,29.78,10,10,10,21,12,26,0.00,0,,139
2013-11-4,78,63,48,54,48,42,86,63,35,29.87,29.80,29.73,10,10,10,21,8,28,0.00,1,,131
2013-11-5,80,68,55,54,43,32,90,52,19,29.95,29.83,29.77,10,10,10,22,11,26,0.00,2,,214
2013-11-6,64,54,39,41,26,17,77,39,16,30.33,30.22,29.99,10,10,10,18,10,23,0.01,2,Rain,12
2013-11-7,63,46,30,26,19,15,57,35,17,30.47,30.37,30.27,10,10,10,15,7,20,0.00,0,,107
2013-11-8,57,51,44,44,33,21,93,53,28,30.26,30.12,30.01,10,10,10,18,10,23,0.00,2,Rain,139
2013-11-9,80,60,39,49,38,24,96,64,13,30.11,30.02,29.95,10,10,10,9,3,,0.00,3,,165
2013-11-10,75,57,39,52,42,34,90,60,30,30.24,30.14,30.06,10,10,10,10,6,,0.00,0,,57
2013-11-11,75,64,52,54,51,42,96,76,31,30.25,30.14,30.06,10,10,10,10,7,,0.00,2,,118
2013-11-12,55,47,39,52,37,19,94,72,33,30.69,30.51,30.21,10,10,10,26,10,38,0.00,7,,33
2013-11-13,57,42,27,27,20,13,63,41,24,30.63,30.44,30.19,10,10,10,13,4,21,0.00,0,,140
2013-11-14,73,58,42,41,35,26,73,50,28,30.16,29.97,29.82,10,10,10,12,7,18,0.00,0,,146
2013-11-15,80,58,36,49,39,30,83,53,25,29.92,29.81,29.70,10,10,10,14,6,22,0.00,1,Rain,214
2013-11-16,82,68,53,52,47,42,89,55,24,29.75,29.66,29.56,10,10,10,25,8,34,0.01,3,Rain,211
2013-11-17,79,69,55,45,38,30,57,37,17,29.95,29.82,29.68,10,10,10,24,11,32,0.00,0,,262
2013-11-18,66,56,45,35,32,30,56,45,29,30.15,30.07,29.96,10,10,10,9,5,,0.00,0,,45
2013-11-19,75,58,42,55,38,28,89,50,26,30.13,29.93,29.78,10,10,10,14,7,,0.00,1,,132
2013-11-20,81,68,55,57,51,33,97,70,18,29.90,29.77,29.68,10,10,10,13,10,20,0.00,2,,155
2013-11-21,79,64,43,59,48,28,97,65,25,30.17,29.91,29.76,10,10,10,24,9,34,0.00,4,,118
2013-11-22,42,35,28,29,26,22,93,79,53,30.53,30.45,30.17,10,10,10,22,16,32,0.00,8,,15
2013-11-23,34,32,30,32,29,24,92,89,79,30.60,30.52,30.48,10,10,9,18,12,25,0.18,8,Rain-Snow,34
2013-11-24,30,30,30,30,28,26,96,91,85,30.54,30.41,30.22,10,10,9,12,9,,0.07,8,Rain,80
2013-11-25,48,44,37,35,31,25,65,63,58,30.24,30.14,30.07,10,10,10,22,17,36,0.00,8,,346
2013-11-26,53,40,28,29,26,22,85,60,31,30.43,30.35,30.25,10,10,10,18,12,24,0.00,2,,349
2013-11-27,51,40,28,29,27,24,92,64,36,30.43,30.34,30.22,10,10,10,10,6,,0.00,0,,111
2013-11-28,60,47,34,34,30,27,79,57,30,30.27,30.21,30.15,10,10,10,12,7,,0.00,0,,132
2013-11-29,62,46,30,38,33,28,92,65,36,30.36,30.26,30.19,10,10,10,13,7,,0.00,0,,116
2013-11-30,68,52,36,42,39,34,93,68,35,30.25,30.16,30.09,10,10,10,9,5,,0.00,0,,170